Paddock Wood, United Kingdom
Current Conditions -  °F | °C
As of 2:50 PM on Wednesday 22 Oct 2014 (Local Time) from EGKB Reporting Station
Few Clouds Few Clouds  
Wind Chill: 54°   Ceiling: Unl
Heat Index: 54°   Visibility: 6mi
Dew Point: 41°   Wind: 10mph
Humidity: 62%   Direction: 280°W
Pressure: 30.27"   Gusts: NA
Location:  51.18°N, 0.39°E
Report Text: EGKB 221350Z 28009KT 240V310 9999 FEW030 12/05 Q1025
Loading
Personal Weather Stations






























Interactive Weather Map
Tropical Storm Tracking
New forecast layout! Learn more

10-Day Weather Forecast

Advertisements
Track Severe Weather on mobile